createdAt,value
2018-03-15T00:01:24.265Z,5.30
2018-03-15T00:03:33.377Z,5.30
2018-03-15T00:05:37.491Z,5.30
2018-03-15T00:07:41.584Z,5.30
2018-03-15T00:09:44.904Z,5.30
2018-03-15T00:11:48.256Z,5.20
2018-03-15T00:13:51.636Z,5.20
2018-03-15T00:15:55.000Z,5.20
2018-03-15T00:17:58.435Z,5.20
2018-03-15T00:20:01.837Z,5.10
2018-03-15T00:22:05.281Z,5.10
2018-03-15T00:24:08.670Z,5.20
2018-03-15T00:26:12.132Z,5.10
2018-03-15T00:28:15.456Z,5.10
2018-03-15T00:30:18.784Z,5.00
2018-03-15T00:32:22.147Z,5.00
2018-03-15T00:34:25.586Z,5.00
2018-03-15T00:36:28.994Z,4.90
2018-03-15T00:38:33.091Z,5.00
2018-03-15T00:40:36.413Z,4.90
2018-03-15T00:42:39.781Z,5.00
2018-03-15T00:44:43.151Z,4.90
2018-03-15T00:46:46.489Z,4.90
2018-03-15T00:48:49.812Z,4.90
2018-03-15T00:50:53.374Z,4.90
2018-03-15T00:52:56.741Z,4.90
2018-03-15T00:55:00.851Z,4.80
2018-03-15T00:57:04.967Z,4.80
2018-03-15T00:59:09.356Z,4.80
2018-03-15T01:01:13.476Z,4.70
2018-03-15T01:03:16.837Z,4.70
2018-03-15T01:05:20.178Z,4.70
2018-03-15T01:07:24.301Z,4.60
2018-03-15T01:09:27.633Z,4.60
2018-03-15T01:11:30.976Z,4.60
2018-03-15T01:13:34.336Z,4.70
2018-03-15T01:15:37.675Z,4.70
2018-03-15T01:17:41.001Z,4.60
2018-03-15T01:19:44.314Z,4.60
2018-03-15T01:21:47.646Z,4.60
2018-03-15T01:23:51.021Z,4.60
2018-03-15T01:25:54.367Z,4.50
2018-03-15T01:27:57.708Z,4.50
2018-03-15T01:30:01.048Z,4.50
2018-03-15T01:32:04.390Z,4.50
2018-03-15T01:34:07.759Z,4.50
2018-03-15T01:36:11.871Z,4.40
2018-03-15T01:38:15.234Z,4.40
2018-03-15T01:40:18.582Z,4.40
2018-03-15T01:42:21.931Z,4.40
2018-03-15T01:44:25.306Z,4.40
2018-03-15T01:46:28.602Z,4.40
2018-03-15T01:48:31.934Z,4.40
2018-03-15T01:50:35.278Z,4.40
2018-03-15T01:52:38.608Z,4.40
2018-03-15T01:54:42.002Z,4.40
2018-03-15T01:56:46.100Z,4.30
2018-03-15T01:58:49.408Z,4.30
2018-03-15T02:00:52.752Z,4.30
2018-03-15T02:02:56.089Z,4.30
2018-03-15T02:04:59.485Z,4.20
2018-03-15T02:07:02.870Z,4.20
2018-03-15T02:09:06.185Z,4.20
2018-03-15T02:11:09.582Z,4.20
2018-03-15T02:13:12.926Z,4.10
2018-03-15T02:15:17.018Z,4.10
2018-03-15T02:17:20.353Z,4.10
2018-03-15T02:19:23.681Z,4.20
2018-03-15T02:21:27.062Z,4.10
2018-03-15T02:23:30.414Z,4.10
2018-03-15T02:25:34.506Z,4.10
2018-03-15T02:27:37.851Z,4.10
2018-03-15T02:29:41.193Z,4.10
2018-03-15T02:31:44.552Z,4.00
2018-03-15T02:33:47.880Z,4.00
2018-03-15T02:35:51.253Z,4.00
2018-03-15T02:37:54.638Z,4.00
2018-03-15T02:39:57.964Z,4.00
2018-03-15T02:42:02.103Z,4.00
2018-03-15T02:44:05.432Z,3.90
2018-03-15T02:46:08.855Z,4.00
2018-03-15T02:48:12.231Z,3.90
2018-03-15T02:50:15.553Z,3.90
2018-03-15T02:52:18.930Z,3.80
2018-03-15T02:54:23.107Z,3.80
2018-03-15T02:56:26.422Z,3.70
2018-03-15T02:58:30.509Z,3.70
2018-03-15T03:00:33.843Z,3.70
2018-03-15T03:02:37.232Z,3.70
2018-03-15T03:04:40.575Z,3.70
2018-03-15T03:06:43.925Z,3.70
2018-03-15T03:08:47.255Z,3.60
2018-03-15T03:10:50.606Z,3.60
2018-03-15T03:12:54.007Z,3.50
2018-03-15T03:14:57.341Z,3.50
2018-03-15T03:17:00.684Z,3.50
2018-03-15T03:19:04.009Z,3.50
2018-03-15T03:21:07.337Z,3.50
2018-03-15T03:23:11.473Z,3.50
2018-03-15T03:25:14.791Z,3.40
2018-03-15T03:27:18.154Z,3.40
2018-03-15T03:29:21.483Z,3.40
2018-03-15T03:31:24.811Z,3.40
2018-03-15T03:33:28.982Z,3.30
2018-03-15T03:35:32.327Z,3.30
2018-03-15T03:37:36.426Z,3.40
2018-03-15T03:39:40.537Z,3.40
2018-03-15T03:41:44.642Z,3.50
2018-03-15T03:43:48.798Z,3.50
2018-03-15T03:45:52.130Z,3.40
2018-03-15T03:47:55.466Z,3.50
2018-03-15T03:49:58.795Z,3.40
2018-03-15T03:52:02.129Z,3.40
2018-03-15T03:54:05.509Z,3.40
2018-03-15T03:56:08.874Z,3.30
2018-03-15T03:58:12.232Z,3.40
2018-03-15T04:00:15.565Z,3.30
2018-03-15T04:02:19.688Z,3.30
2018-03-15T04:04:23.052Z,3.30
2018-03-15T04:06:26.372Z,3.40
2018-03-15T04:08:29.741Z,3.40
2018-03-15T04:10:33.070Z,3.40
2018-03-15T04:12:36.425Z,3.40
2018-03-15T04:14:39.818Z,3.40
2018-03-15T04:16:43.961Z,3.40
2018-03-15T04:18:47.353Z,3.40
2018-03-15T04:20:50.695Z,3.30
2018-03-15T04:22:54.024Z,3.30
2018-03-15T04:24:58.152Z,3.40
2018-03-15T04:27:01.510Z,3.30
2018-03-15T04:29:05.639Z,3.30
2018-03-15T04:31:09.758Z,3.30
2018-03-15T04:33:13.853Z,3.30
2018-03-15T04:35:19.588Z,3.30
2018-03-15T04:37:22.918Z,3.20
2018-03-15T04:39:26.270Z,3.20
2018-03-15T04:41:29.612Z,3.20
2018-03-15T04:43:32.939Z,3.20
2018-03-15T04:45:36.333Z,3.20
2018-03-15T04:47:39.709Z,3.20
2018-03-15T04:49:43.023Z,3.30
2018-03-15T04:51:46.384Z,3.20
2018-03-15T04:53:49.705Z,3.20
2018-03-15T04:55:53.833Z,3.20
2018-03-15T04:57:57.934Z,3.10
2018-03-15T05:00:01.403Z,3.20
2018-03-15T05:02:04.771Z,3.10
2018-03-15T05:04:08.138Z,3.10
2018-03-15T05:06:11.494Z,3.10
2018-03-15T05:08:14.876Z,3.10
2018-03-15T05:10:18.203Z,3.10
2018-03-15T05:12:21.659Z,3.10
2018-03-15T05:14:25.004Z,3.10
2018-03-15T05:16:28.398Z,3.20
2018-03-15T05:18:31.735Z,3.10
2018-03-15T05:20:35.065Z,3.00
2018-03-15T05:22:38.412Z,3.00
2018-03-15T05:24:41.748Z,3.00
2018-03-15T05:26:45.096Z,3.00
2018-03-15T05:28:48.471Z,3.00
2018-03-15T05:30:51.818Z,3.00
2018-03-15T05:32:55.176Z,3.00
2018-03-15T05:34:58.564Z,3.00
2018-03-15T05:37:01.902Z,3.00
2018-03-15T05:39:06.121Z,3.00
2018-03-15T05:41:09.479Z,3.00
2018-03-15T05:43:13.586Z,2.90
2018-03-15T05:45:17.742Z,2.90
2018-03-15T05:47:21.190Z,2.90
2018-03-15T05:49:25.320Z,2.90
2018-03-15T05:51:29.529Z,2.90
2018-03-15T05:53:33.640Z,2.90
2018-03-15T05:55:36.996Z,2.90
2018-03-15T05:57:40.361Z,2.90
2018-03-15T05:59:43.688Z,3.00
2018-03-15T06:01:47.065Z,3.00
2018-03-15T06:03:50.427Z,3.00
2018-03-15T06:05:53.762Z,3.00
2018-03-15T06:07:57.925Z,3.10
2018-03-15T06:10:01.292Z,3.00
2018-03-15T06:12:04.631Z,3.10
2018-03-15T06:14:07.995Z,3.20
2018-03-15T06:16:11.343Z,3.20
2018-03-15T06:18:14.703Z,3.30
2018-03-15T06:20:18.054Z,3.30
2018-03-15T06:22:21.371Z,3.40
2018-03-15T06:24:24.712Z,3.40
2018-03-15T06:26:28.824Z,3.50
2018-03-15T06:28:32.180Z,3.50
2018-03-15T06:30:35.523Z,3.50
2018-03-15T06:32:39.637Z,3.70
2018-03-15T06:34:43.014Z,3.70
2018-03-15T06:36:46.348Z,3.70
2018-03-15T06:38:49.730Z,3.80
2018-03-15T06:40:53.816Z,3.80
2018-03-15T06:42:57.146Z,3.80
2018-03-15T06:45:00.514Z,3.80
2018-03-15T06:47:03.833Z,3.90
2018-03-15T06:49:07.195Z,3.90
2018-03-15T06:51:10.514Z,3.90
2018-03-15T06:53:13.824Z,4.00
2018-03-15T06:55:17.181Z,4.10
2018-03-15T06:57:20.506Z,4.20
2018-03-15T06:59:23.843Z,4.20
2018-03-15T07:01:27.158Z,4.30
2018-03-15T07:03:30.514Z,4.30
2018-03-15T07:05:34.615Z,4.40
2018-03-15T07:07:37.950Z,4.40
2018-03-15T07:09:41.277Z,4.50
2018-03-15T07:11:44.612Z,4.50
2018-03-15T07:13:47.972Z,4.60
2018-03-15T07:15:51.362Z,4.60
2018-03-15T07:17:54.703Z,4.70
2018-03-15T07:19:58.023Z,4.80
2018-03-15T07:22:01.453Z,4.90
2018-03-15T07:24:04.831Z,4.90
2018-03-15T07:26:09.221Z,5.00
2018-03-15T07:28:12.568Z,5.00
2018-03-15T07:30:15.912Z,5.10
2018-03-15T07:32:19.279Z,5.10
2018-03-15T07:34:22.596Z,5.20
2018-03-15T07:36:25.926Z,5.20
2018-03-15T07:38:29.254Z,5.30
2018-03-15T07:40:32.593Z,5.30
2018-03-15T07:42:36.718Z,5.40
2018-03-15T07:44:40.072Z,5.40
2018-03-15T07:46:43.439Z,5.50
2018-03-15T07:48:46.758Z,5.50
2018-03-15T07:50:50.150Z,5.50
2018-03-15T07:52:54.280Z,5.60
2018-03-15T07:54:58.369Z,5.70
2018-03-15T07:57:01.714Z,5.70
2018-03-15T07:59:05.057Z,5.70
2018-03-15T08:01:08.385Z,5.80
2018-03-15T08:03:11.748Z,5.90
2018-03-15T08:05:15.068Z,6.00
2018-03-15T08:07:18.412Z,6.00
2018-03-15T08:09:22.566Z,6.10
2018-03-15T08:11:25.896Z,6.10
2018-03-15T08:13:29.264Z,6.10
2018-03-15T08:15:32.595Z,6.20
2018-03-15T08:17:35.944Z,6.20
2018-03-15T08:19:39.317Z,6.20
2018-03-15T08:21:42.759Z,6.30
2018-03-15T08:23:46.127Z,6.30
2018-03-15T08:25:49.474Z,6.30
2018-03-15T08:27:53.594Z,6.40
2018-03-15T08:29:57.725Z,6.50
2018-03-15T08:32:01.067Z,6.40
2018-03-15T08:34:04.502Z,6.50
2018-03-15T08:36:07.853Z,6.60
2018-03-15T08:38:11.188Z,6.80
2018-03-15T08:40:14.556Z,6.80
2018-03-15T08:42:18.670Z,7.00
2018-03-15T08:44:22.780Z,7.00
2018-03-15T08:46:26.132Z,7.00
2018-03-15T08:48:29.485Z,7.20
2018-03-15T08:50:32.854Z,7.40
2018-03-15T08:52:36.938Z,7.60
2018-03-15T08:54:41.047Z,7.70
2018-03-15T08:56:44.389Z,7.70
2018-03-15T08:58:47.716Z,7.80
2018-03-15T09:00:51.080Z,7.90
2018-03-15T09:02:54.400Z,7.90
2018-03-15T09:04:57.870Z,7.90
2018-03-15T09:07:01.180Z,8.00
2018-03-15T09:09:04.907Z,8.00
2018-03-15T09:11:09.253Z,8.00
2018-03-15T09:13:12.594Z,7.90
2018-03-15T09:15:15.906Z,8.00
2018-03-15T09:17:19.247Z,8.00
2018-03-15T09:19:22.559Z,8.00
2018-03-15T09:21:25.959Z,8.00
2018-03-15T09:23:29.289Z,8.10
2018-03-15T09:25:33.370Z,8.00
2018-03-15T09:27:36.703Z,8.00
2018-03-15T09:29:40.880Z,8.10
2018-03-15T09:31:44.247Z,8.10
2018-03-15T09:33:47.585Z,8.20
2018-03-15T09:35:52.538Z,8.20
2018-03-15T09:37:55.906Z,8.20
2018-03-15T09:39:59.248Z,8.20
2018-03-15T09:42:02.626Z,8.30
2018-03-15T09:44:05.999Z,8.40
2018-03-15T09:46:09.421Z,8.30
2018-03-15T09:48:12.744Z,8.30
2018-03-15T09:50:16.105Z,8.40
2018-03-15T09:52:19.484Z,8.30
2018-03-15T09:54:22.825Z,8.40
2018-03-15T09:56:27.306Z,8.50
2018-03-15T09:58:30.678Z,8.50
2018-03-15T10:00:34.039Z,8.50
2018-03-15T10:02:37.467Z,8.60
2018-03-15T10:04:40.823Z,8.60
2018-03-15T10:06:44.169Z,8.60
2018-03-15T10:08:47.548Z,8.60
2018-03-15T10:10:50.902Z,8.60
2018-03-15T10:12:54.266Z,8.60
2018-03-15T10:14:57.638Z,8.60
2018-03-15T10:17:01.792Z,8.60
2018-03-15T10:19:05.162Z,8.60
2018-03-15T10:21:09.295Z,8.70
2018-03-15T10:23:12.641Z,8.60
2018-03-15T10:25:26.394Z,8.70
2018-03-15T10:27:19.356Z,8.70
2018-03-15T10:29:22.729Z,8.70
2018-03-15T10:31:26.840Z,8.70
2018-03-15T10:33:36.728Z,8.60
2018-03-15T10:35:40.109Z,8.60
2018-03-15T10:37:43.448Z,8.60
2018-03-15T10:39:47.613Z,8.60
2018-03-15T10:41:50.956Z,8.60
2018-03-15T10:43:54.309Z,8.70
2018-03-15T10:45:57.706Z,8.80
2018-03-15T10:48:01.111Z,8.80
2018-03-15T10:50:05.263Z,8.90
2018-03-15T10:52:09.374Z,8.90
2018-03-15T10:54:12.719Z,8.80
2018-03-15T10:56:16.089Z,8.80
2018-03-15T10:58:19.427Z,8.80
2018-03-15T11:02:56.734Z,8.70
2018-03-15T11:05:00.834Z,8.70
2018-03-15T11:07:05.173Z,8.70
2018-03-15T11:09:14.266Z,8.60
2018-03-15T11:11:17.734Z,8.70
2018-03-15T11:13:21.069Z,8.70
2018-03-15T11:15:25.175Z,8.80
2018-03-15T11:17:28.545Z,8.80
2018-03-15T11:19:31.867Z,8.80
2018-03-15T11:21:35.993Z,8.80
2018-03-15T11:23:39.352Z,8.80
2018-03-15T11:25:43.478Z,8.70
2018-03-15T11:27:47.607Z,8.70
2018-03-15T11:29:50.956Z,8.70
2018-03-15T11:31:54.329Z,8.70
2018-03-15T11:33:57.664Z,8.80
2018-03-15T11:36:01.778Z,8.80
2018-03-15T11:38:05.156Z,8.80
2018-03-15T11:40:09.279Z,9.10
2018-03-15T11:42:13.329Z,9.00
2018-03-15T11:44:16.697Z,9.10
2018-03-15T11:46:20.801Z,9.20
2018-03-15T11:48:24.170Z,9.10
2018-03-15T11:50:27.525Z,9.30
2018-03-15T11:52:30.866Z,9.30
2018-03-15T11:54:34.230Z,9.30
2018-03-15T11:56:37.580Z,9.20
2018-03-15T11:58:40.955Z,9.20
2018-03-15T12:00:44.273Z,9.20
2018-03-15T12:02:47.612Z,9.20
2018-03-15T12:04:51.746Z,9.30
2018-03-15T12:06:55.112Z,9.30
2018-03-15T12:08:59.216Z,9.40
2018-03-15T12:11:02.618Z,9.40
2018-03-15T12:13:06.003Z,9.50
2018-03-15T12:15:10.147Z,9.60
2018-03-15T12:17:13.717Z,9.50
2018-03-15T12:19:17.103Z,9.60
2018-03-15T12:21:21.426Z,9.70
2018-03-15T12:23:25.517Z,9.70
2018-03-15T12:25:28.880Z,9.70
2018-03-15T12:27:32.251Z,9.70
2018-03-15T12:29:35.597Z,9.80
2018-03-15T12:31:38.962Z,9.80
2018-03-15T12:33:42.321Z,9.80
2018-03-15T12:35:46.323Z,9.80
2018-03-15T12:37:49.660Z,9.80
2018-03-15T12:39:52.990Z,9.80
2018-03-15T12:41:57.067Z,9.70
2018-03-15T12:44:00.390Z,9.70
2018-03-15T12:46:04.482Z,9.70
2018-03-15T12:50:17.351Z,9.70
2018-03-15T12:52:20.714Z,9.70
2018-03-15T12:54:24.047Z,9.70
2018-03-15T12:56:27.382Z,9.80
2018-03-15T12:58:30.726Z,9.80
2018-03-15T13:00:34.066Z,9.90
2018-03-15T13:02:37.392Z,9.80
2018-03-15T13:04:40.731Z,9.70
2018-03-15T13:06:44.062Z,9.60
2018-03-15T13:08:48.158Z,9.60
2018-03-15T13:10:52.266Z,9.60
2018-03-15T13:12:56.394Z,9.60
2018-03-15T13:14:59.735Z,9.60
2018-03-15T13:17:03.054Z,9.70
2018-03-15T13:19:06.375Z,9.70
2018-03-15T13:21:09.714Z,9.70
2018-03-15T13:23:13.126Z,9.70
2018-03-15T13:25:16.449Z,9.60
2018-03-15T13:27:19.786Z,9.70
2018-03-15T13:29:23.108Z,9.60
2018-03-15T13:31:27.192Z,9.70
2018-03-15T13:33:30.561Z,9.70
2018-03-15T13:35:33.870Z,9.80
2018-03-15T13:37:37.219Z,9.80
2018-03-15T13:39:40.518Z,9.80
2018-03-15T13:41:43.849Z,9.80
2018-03-15T13:43:47.191Z,9.80
2018-03-15T13:45:50.534Z,9.90
2018-03-15T13:47:54.640Z,9.90
2018-03-15T13:49:57.961Z,9.80
2018-03-15T13:52:02.072Z,9.90
2018-03-15T13:54:06.169Z,9.90
2018-03-15T13:56:09.518Z,9.90
2018-03-15T13:58:12.844Z,9.90
2018-03-15T14:00:16.153Z,9.80
2018-03-15T14:02:20.235Z,9.90
2018-03-15T14:04:23.560Z,9.90
2018-03-15T14:06:26.905Z,9.80
2018-03-15T14:08:30.247Z,9.80
2018-03-15T14:10:33.587Z,9.80
2018-03-15T14:12:36.935Z,9.80
2018-03-15T14:14:40.296Z,9.80
2018-03-15T14:16:43.667Z,9.80
2018-03-15T14:18:46.991Z,9.80
2018-03-15T14:20:51.085Z,9.70
2018-03-15T14:22:54.997Z,9.70
2018-03-15T14:24:58.325Z,9.80
2018-03-15T14:27:01.654Z,9.70
2018-03-15T14:29:05.013Z,9.70
2018-03-15T14:31:08.375Z,9.70
2018-03-15T14:33:12.446Z,9.80
2018-03-15T14:35:15.767Z,9.70
2018-03-15T14:37:19.859Z,9.70
2018-03-15T14:39:23.958Z,9.70
2018-03-15T14:41:27.667Z,9.70
2018-03-15T14:43:32.783Z,9.70
2018-03-15T14:45:36.617Z,9.70
2018-03-15T14:47:41.107Z,9.70
2018-03-15T14:49:44.790Z,9.60
2018-03-15T14:51:48.263Z,9.70
2018-03-15T14:53:52.062Z,9.70
2018-03-15T14:55:55.483Z,9.70
2018-03-15T14:57:58.853Z,9.70
2018-03-15T15:00:02.929Z,9.70
2018-03-15T15:02:07.134Z,9.70
2018-03-15T15:04:12.034Z,9.70
2018-03-15T15:06:15.410Z,9.60
2018-03-15T15:08:19.324Z,9.60
2018-03-15T15:10:22.744Z,9.60
2018-03-15T15:12:26.141Z,9.50
2018-03-15T15:14:29.958Z,9.50
2018-03-15T15:16:34.152Z,9.40
2018-03-15T15:18:38.271Z,9.20
2018-03-15T15:20:42.382Z,9.10
2018-03-15T15:22:46.077Z,9.10
2018-03-15T15:24:51.283Z,9.00
2018-03-15T15:26:54.666Z,9.00
2018-03-15T15:28:57.995Z,9.00
2018-03-15T15:31:02.079Z,8.90
2018-03-15T15:33:05.478Z,8.80
2018-03-15T15:35:08.988Z,8.80
2018-03-15T15:37:13.057Z,8.80
2018-03-15T15:39:16.396Z,8.80
2018-03-15T15:41:19.735Z,8.80
2018-03-15T15:43:23.120Z,8.90
2018-03-15T15:45:26.697Z,8.90
2018-03-15T15:47:30.895Z,8.90
2018-03-15T15:49:34.925Z,8.80
2018-03-15T15:51:40.083Z,8.90
2018-03-15T15:53:45.106Z,8.90
2018-03-15T15:55:49.551Z,8.90
2018-03-15T15:57:54.426Z,8.90
2018-03-15T15:59:59.772Z,8.90
2018-03-15T16:02:03.173Z,8.90
2018-03-15T16:04:07.467Z,8.80
2018-03-15T16:06:12.127Z,8.80
2018-03-15T16:08:18.559Z,8.80
2018-03-15T16:10:22.560Z,8.80
2018-03-15T16:12:26.096Z,8.80
2018-03-15T16:14:29.878Z,8.70
2018-03-15T16:16:34.068Z,8.70
2018-03-15T16:18:37.524Z,8.80
2018-03-15T16:20:40.851Z,8.80
2018-03-15T16:22:45.845Z,8.80
2018-03-15T16:24:49.346Z,8.80
2018-03-15T16:26:53.498Z,8.90
2018-03-15T16:29:00.435Z,8.90
2018-03-15T16:31:04.937Z,8.90
2018-03-15T16:33:09.092Z,8.90
2018-03-15T16:35:13.170Z,8.90
2018-03-15T16:37:16.520Z,8.80
2018-03-15T16:39:21.554Z,8.80
2018-03-15T16:41:24.939Z,8.80
2018-03-15T16:43:28.439Z,8.70
2018-03-15T16:45:31.774Z,8.70
2018-03-15T16:47:35.189Z,8.60
2018-03-15T16:49:38.958Z,8.60
2018-03-15T16:51:43.345Z,8.40
2018-03-15T16:53:48.496Z,8.30
2018-03-15T16:55:53.573Z,8.30
2018-03-15T16:57:58.956Z,8.30
2018-03-15T17:00:03.012Z,8.20
2018-03-15T17:02:06.840Z,8.20
2018-03-15T17:04:11.824Z,8.20
2018-03-15T17:06:17.790Z,8.20
2018-03-15T17:08:22.482Z,8.20
2018-03-15T17:10:25.844Z,8.20
2018-03-15T17:12:29.184Z,8.20
2018-03-15T17:14:33.373Z,8.10
2018-03-15T17:16:36.791Z,8.10
2018-03-15T17:18:41.030Z,8.10
2018-03-15T17:20:45.191Z,8.10
2018-03-15T17:22:48.939Z,8.10
2018-03-15T17:24:52.644Z,8.10
2018-03-15T17:26:56.082Z,8.20
2018-03-15T17:28:59.430Z,8.10
2018-03-15T17:31:02.757Z,8.20
2018-03-15T17:33:06.125Z,8.20
2018-03-15T17:35:09.508Z,8.20
2018-03-15T17:37:12.935Z,8.10
2018-03-15T17:39:16.370Z,8.10
2018-03-15T17:41:19.825Z,8.10
2018-03-15T17:43:23.959Z,8.10
2018-03-15T17:45:28.394Z,8.00
2018-03-15T17:47:32.116Z,8.00
2018-03-15T17:49:35.565Z,7.90
2018-03-15T17:51:39.899Z,7.80
2018-03-15T17:53:43.477Z,7.80
2018-03-15T17:55:49.020Z,7.80
2018-03-15T17:57:55.453Z,7.80
2018-03-15T18:00:01.924Z,7.80
2018-03-15T18:02:11.204Z,7.80
2018-03-15T18:04:15.301Z,7.80
2018-03-15T18:06:20.233Z,7.80
2018-03-15T18:08:23.694Z,7.80
2018-03-15T18:10:28.931Z,7.80
2018-03-15T18:12:33.595Z,7.70
2018-03-15T18:14:37.481Z,7.70
2018-03-15T18:16:41.992Z,7.70
2018-03-15T18:18:45.373Z,7.70
2018-03-15T18:20:49.501Z,7.70
2018-03-15T18:22:52.878Z,7.70
2018-03-15T18:24:57.066Z,7.90
2018-03-15T18:27:00.488Z,7.80
2018-03-15T18:29:03.856Z,7.80
2018-03-15T18:31:07.291Z,7.70
2018-03-15T18:33:11.541Z,7.70
2018-03-15T18:35:18.012Z,7.70
2018-03-15T18:37:22.041Z,7.70
2018-03-15T18:39:26.243Z,7.70
2018-03-15T18:41:29.638Z,7.60
2018-03-15T18:43:33.942Z,7.50
2018-03-15T18:45:37.379Z,7.50
2018-03-15T18:47:42.332Z,7.40
2018-03-15T18:49:45.746Z,7.40
2018-03-15T18:51:49.138Z,7.40
2018-03-15T18:53:53.065Z,7.40
2018-03-15T18:55:56.491Z,7.50
2018-03-15T18:57:59.881Z,7.50
2018-03-15T19:00:03.306Z,7.50
2018-03-15T19:02:07.694Z,7.40
2018-03-15T19:04:11.194Z,7.40
2018-03-15T19:06:14.701Z,7.40
2018-03-15T19:08:18.127Z,7.40
2018-03-15T19:10:21.500Z,7.40
2018-03-15T19:12:24.920Z,7.40
2018-03-15T19:14:28.719Z,7.50
2018-03-15T19:16:32.962Z,7.50
2018-03-15T19:18:37.280Z,7.50
2018-03-15T19:20:41.406Z,7.40
2018-03-15T19:22:44.835Z,7.40
2018-03-15T19:24:48.278Z,7.50
2018-03-15T19:26:53.949Z,7.50
2018-03-15T19:28:57.354Z,7.50
2018-03-15T19:31:00.696Z,7.50
2018-03-15T19:33:04.533Z,7.50
2018-03-15T19:35:07.902Z,7.50
2018-03-15T19:37:11.420Z,7.50
2018-03-15T19:39:15.514Z,7.40
2018-03-15T19:41:20.571Z,7.50
2018-03-15T19:43:23.959Z,7.50
2018-03-15T19:45:27.376Z,7.50
2018-03-15T19:47:32.849Z,7.40
2018-03-15T19:49:37.900Z,7.40
2018-03-15T19:51:41.992Z,7.40
2018-03-15T19:53:45.707Z,7.40
2018-03-15T19:55:49.954Z,7.40
2018-03-15T19:57:53.317Z,7.50
2018-03-15T19:59:57.556Z,7.50
2018-03-15T20:02:01.263Z,7.50
2018-03-15T20:04:04.681Z,7.50
2018-03-15T20:06:08.934Z,7.50
2018-03-15T20:08:12.281Z,7.50
2018-03-15T20:10:15.657Z,7.50
2018-03-15T20:12:18.985Z,7.50
2018-03-15T20:14:22.378Z,7.50
2018-03-15T20:16:26.595Z,7.40
2018-03-15T20:18:30.802Z,7.40
2018-03-15T20:20:34.428Z,7.40
2018-03-15T20:22:43.643Z,7.40
2018-03-15T20:24:47.003Z,7.40
2018-03-15T20:26:50.375Z,7.40
2018-03-15T20:28:53.762Z,7.40
2018-03-15T20:30:57.904Z,7.50
2018-03-15T20:33:06.875Z,7.50
2018-03-15T20:35:10.251Z,7.60
2018-03-15T20:37:13.622Z,7.50
2018-03-15T20:41:55.722Z,7.50
2018-03-15T20:43:59.413Z,7.50
2018-03-15T20:46:09.215Z,7.50
2018-03-15T20:48:18.927Z,7.50
2018-03-15T20:50:23.274Z,7.50
2018-03-15T20:52:27.358Z,7.50
2018-03-15T20:54:30.751Z,7.50
2018-03-15T20:56:34.353Z,7.50
2018-03-15T20:58:38.749Z,7.50
2018-03-15T21:00:42.130Z,7.50
2018-03-15T21:02:45.515Z,7.50
2018-03-15T21:04:48.857Z,7.50
2018-03-15T21:06:52.999Z,7.50
2018-03-15T21:08:56.355Z,7.40
2018-03-15T21:10:59.719Z,7.40
2018-03-15T21:13:03.834Z,7.40
2018-03-15T21:15:07.172Z,7.40
2018-03-15T21:17:10.619Z,7.40
2018-03-15T21:19:14.067Z,7.40
2018-03-15T21:21:17.460Z,7.40
2018-03-15T21:23:20.796Z,7.40
2018-03-15T21:25:24.901Z,7.40
2018-03-15T21:27:29.023Z,7.40
2018-03-15T21:29:32.356Z,7.40
2018-03-15T21:31:35.686Z,7.40
2018-03-15T21:33:39.826Z,7.40
2018-03-15T21:35:43.153Z,7.40
2018-03-15T21:37:46.583Z,7.40
2018-03-15T21:39:51.783Z,7.30
2018-03-15T21:41:56.086Z,7.30
2018-03-15T21:43:59.445Z,7.40
2018-03-15T21:46:03.546Z,7.40
2018-03-15T21:48:07.638Z,7.40
2018-03-15T21:50:11.761Z,7.40
2018-03-15T21:52:15.113Z,7.40
2018-03-15T21:54:18.449Z,7.40
2018-03-15T21:56:22.542Z,7.30
2018-03-15T21:58:26.652Z,7.40
2018-03-15T22:00:29.971Z,7.40
2018-03-15T22:02:33.317Z,7.40
2018-03-15T22:04:36.633Z,7.40
2018-03-15T22:06:40.761Z,7.40
2018-03-15T22:08:44.111Z,7.40
2018-03-15T22:10:47.441Z,7.50
2018-03-15T22:12:50.764Z,7.50
2018-03-15T22:14:54.146Z,7.50
2018-03-15T22:16:58.654Z,7.60
2018-03-15T22:19:02.054Z,7.60
2018-03-15T22:21:06.166Z,7.60
2018-03-15T22:23:09.491Z,7.60
2018-03-15T22:25:13.037Z,7.60
2018-03-15T22:27:16.374Z,7.50
2018-03-15T22:29:19.713Z,7.50
2018-03-15T22:31:23.118Z,7.50
2018-03-15T22:33:26.486Z,7.50
2018-03-15T22:35:30.582Z,7.50
2018-03-15T22:37:33.918Z,7.50
2018-03-15T22:39:37.241Z,7.50
2018-03-15T22:41:40.594Z,7.60
2018-03-15T22:43:43.929Z,7.60
2018-03-15T22:45:47.259Z,7.50
2018-03-15T22:47:51.400Z,7.60
2018-03-15T22:49:54.784Z,7.50
2018-03-15T22:51:58.090Z,7.60
2018-03-15T22:54:01.410Z,7.70
2018-03-15T22:56:04.754Z,7.60
2018-03-15T22:58:08.831Z,7.60
2018-03-15T23:00:12.259Z,7.50
2018-03-15T23:02:15.576Z,7.50
2018-03-15T23:04:19.728Z,7.60
2018-03-15T23:06:23.859Z,7.60
2018-03-15T23:08:27.171Z,7.60
2018-03-15T23:10:31.434Z,7.70
2018-03-15T23:12:35.519Z,7.70
2018-03-15T23:14:38.839Z,7.70
2018-03-15T23:16:42.974Z,7.60
2018-03-15T23:18:46.287Z,7.60
2018-03-15T23:20:49.660Z,7.60
2018-03-15T23:22:52.977Z,7.70
2018-03-15T23:24:56.290Z,7.70
2018-03-15T23:26:59.602Z,7.60
2018-03-15T23:29:02.938Z,7.60
2018-03-15T23:31:06.258Z,7.60
2018-03-15T23:33:09.587Z,7.60
2018-03-15T23:35:13.648Z,7.60
2018-03-15T23:37:17.009Z,7.60
2018-03-15T23:39:20.362Z,7.60
2018-03-15T23:41:24.496Z,7.70
2018-03-15T23:43:27.855Z,7.70
2018-03-15T23:45:31.167Z,7.70
2018-03-15T23:47:34.532Z,7.70
2018-03-15T23:49:37.854Z,7.70
2018-03-15T23:51:41.174Z,7.70
2018-03-15T23:53:44.515Z,7.60
2018-03-15T23:55:48.592Z,7.60
2018-03-15T23:57:51.940Z,7.60
2018-03-15T23:59:55.238Z,7.70
